Uncasville, Connecticut
Current Conditions -  °F | °C
As of 5:56 AM on Thursday 27 Nov 2014 (Local Time) from KGON Reporting Station
Clear Clear  
Wind Chill: 26°   Ceiling: Unl
Heat Index: 32°   Visibility: 9mi
Dew Point: 31°   Wind: 7mph
Humidity: 96%   Direction: 300°WNW
Pressure: 29.88"   Gusts: NA
Location:  41.43°N, 72.11°W
Report Text: KGON 271056Z AUTO 30006KT 9SM CLR 00/M01 A2988 RMK AO2 SLP116 T00001006 $
Loading
Personal Weather Stations






























Interactive Weather Map New forecast layout! Learn more

10-Day Weather Forecast

Advertisements
Track Severe Weather on mobile